createdAt,value
2017-08-12T00:02:02.433Z,99956
2017-08-12T00:04:32.079Z,99959
2017-08-12T00:09:57.238Z,99934
2017-08-12T00:12:26.842Z,99927
2017-08-12T00:14:56.470Z,99931
2017-08-12T00:17:26.055Z,99940
2017-08-12T00:25:46.040Z,99950
2017-08-12T00:28:15.638Z,99957
2017-08-12T00:30:45.291Z,99962
2017-08-12T00:36:09.797Z,99937
2017-08-12T00:38:39.403Z,99930
2017-08-12T00:41:09.038Z,99936
2017-08-12T00:43:38.641Z,99943
2017-08-12T00:46:08.264Z,99937
2017-08-12T00:48:58.394Z,99940
2017-08-12T00:51:28.061Z,99955
2017-08-12T00:53:57.666Z,99952
2017-08-12T00:56:27.338Z,99956
2017-08-12T00:58:56.957Z,99958
2017-08-12T01:04:22.691Z,99951
2017-08-12T01:06:52.267Z,99948
2017-08-12T01:09:21.919Z,99951
2017-08-12T01:11:51.496Z,99944
2017-08-12T01:14:21.136Z,99944
2017-08-12T01:19:45.592Z,99952
2017-08-12T01:22:15.177Z,99947
2017-08-12T01:24:44.831Z,99932
2017-08-12T01:27:14.420Z,99936
2017-08-12T01:32:39.643Z,99930
2017-08-12T01:35:09.239Z,99941
2017-08-12T01:37:38.931Z,99933
2017-08-12T01:40:08.514Z,99942
2017-08-12T01:48:24.731Z,99935
2017-08-12T01:50:54.342Z,99938
2017-08-12T01:53:24.273Z,99936
2017-08-12T01:55:53.846Z,99935
2017-08-12T01:58:23.528Z,99943
2017-08-12T02:00:53.105Z,99938
2017-08-12T02:03:22.775Z,99928
2017-08-12T02:05:52.353Z,99929
2017-08-12T02:08:21.924Z,99925
2017-08-12T02:16:41.096Z,99940
2017-08-12T02:19:10.692Z,99952
2017-08-12T02:21:40.363Z,99944
2017-08-12T02:24:09.962Z,99947
2017-08-12T02:29:35.035Z,99960
2017-08-12T02:32:04.621Z,99965
2017-08-12T02:34:34.198Z,99961
2017-08-12T02:37:03.897Z,99959
2017-08-12T02:42:28.229Z,99943
2017-08-12T02:44:57.828Z,99951
2017-08-12T02:47:27.505Z,99953
2017-08-12T02:49:57.108Z,99958
2017-08-12T02:58:01.069Z,99963
2017-08-12T03:00:30.932Z,99958
2017-08-12T03:03:00.594Z,99967
2017-08-12T03:05:30.205Z,99950
2017-08-12T03:13:49.879Z,99956
2017-08-12T03:16:19.511Z,99945
2017-08-12T03:18:49.128Z,99949
2017-08-12T03:24:33.724Z,99952
2017-08-12T03:27:03.338Z,99961
2017-08-12T03:29:32.999Z,99954
2017-08-12T03:32:02.604Z,99947
2017-08-12T03:40:21.990Z,99954
2017-08-12T03:42:51.578Z,99954
2017-08-12T03:45:21.201Z,99968
2017-08-12T03:47:50.847Z,99968
2017-08-12T04:01:59.538Z,99981
2017-08-12T04:04:29.144Z,99976
2017-08-12T04:12:47.858Z,99983
2017-08-12T04:15:17.456Z,99980
2017-08-12T04:17:47.142Z,99984
2017-08-12T04:23:12.223Z,99990
2017-08-12T04:25:41.818Z,99982
2017-08-12T04:28:11.437Z,99976
2017-08-12T04:36:31.239Z,99968
2017-08-12T04:39:00.827Z,99966
2017-08-12T04:41:30.506Z,99981
2017-08-12T04:49:49.275Z,100018
2017-08-12T04:52:18.865Z,100021
2017-08-12T04:54:48.531Z,100029
2017-08-12T04:57:18.424Z,100016
2017-08-12T05:02:43.016Z,100015
2017-08-12T05:05:12.606Z,100021
2017-08-12T05:07:42.268Z,100025
2017-08-12T05:10:11.875Z,100023
2017-08-12T05:18:31.032Z,100020
2017-08-12T05:21:00.650Z,100025
2017-08-12T05:23:30.320Z,100027
2017-08-12T05:31:50.124Z,100033
2017-08-12T05:34:19.799Z,100041
2017-08-12T05:36:49.391Z,100036
2017-08-12T05:39:35.373Z,100045
2017-08-12T05:42:04.991Z,100049
2017-08-12T05:44:34.657Z,100053
2017-08-12T05:47:04.257Z,100037
2017-08-12T05:49:33.911Z,100034
2017-08-12T05:52:03.510Z,100036
2017-08-12T05:57:28.600Z,100025
2017-08-12T05:59:58.198Z,100026
2017-08-12T06:02:28.711Z,100025
2017-08-12T06:04:58.313Z,100035
2017-08-12T06:07:27.964Z,100031
2017-08-12T06:10:10.877Z,100027
2017-08-12T06:18:30.649Z,100037
2017-08-12T06:23:55.778Z,100051
2017-08-12T06:26:25.375Z,100037
2017-08-12T06:40:34.018Z,100050
2017-08-12T06:49:00.324Z,100042
2017-08-12T06:51:29.937Z,100049
2017-08-12T07:02:46.418Z,100051
2017-08-12T07:43:06.387Z,100109
2017-08-12T07:45:36.873Z,100104
2017-08-12T08:11:24.011Z,100133
2017-08-12T08:13:53.639Z,100138
2017-08-12T08:25:07.812Z,100139
2017-08-12T08:27:37.409Z,100134
2017-08-12T08:30:17.525Z,100142
2017-08-12T08:32:47.147Z,100146
2017-08-12T08:35:16.821Z,100145
2017-08-12T08:37:46.425Z,100157
2017-08-12T08:40:16.073Z,100158
2017-08-12T08:42:45.677Z,100163
2017-08-12T08:45:15.357Z,100165
2017-08-12T08:47:44.967Z,100178
2017-08-12T08:50:14.595Z,100185
2017-08-12T08:52:44.204Z,100196
2017-08-12T08:55:13.868Z,100185
2017-08-12T09:12:26.821Z,100196
2017-08-12T09:14:56.415Z,100200
2017-08-12T09:17:26.068Z,100207
2017-08-12T09:19:55.677Z,100209
2017-08-12T09:22:25.343Z,100209
2017-08-12T09:27:49.469Z,100198
2017-08-12T09:30:19.091Z,100201
2017-08-12T09:32:48.779Z,100212
2017-08-12T09:35:18.380Z,100204
2017-08-12T09:37:48.033Z,100200
2017-08-12T09:40:17.639Z,100191
2017-08-12T09:42:47.315Z,100189
2017-08-12T09:45:16.913Z,100190
2017-08-12T09:47:46.579Z,100197
2017-08-12T09:50:16.170Z,100189
2017-08-12T09:52:45.820Z,100202
2017-08-12T10:06:54.612Z,100189
2017-08-12T10:09:29.984Z,100190
2017-08-12T10:11:59.621Z,100191
2017-08-12T10:14:29.223Z,100198
2017-08-12T10:16:58.971Z,100197
2017-08-12T10:19:28.597Z,100190
2017-08-12T10:21:58.248Z,100195
2017-08-12T10:24:27.833Z,100196
2017-08-12T10:26:57.506Z,100186
2017-08-12T10:29:27.099Z,100176
2017-08-12T10:31:56.764Z,100176
2017-08-12T10:34:26.386Z,100192
2017-08-12T10:42:45.765Z,100208
2017-08-12T10:45:15.365Z,100191
2017-08-12T10:47:46.005Z,100191
2017-08-12T10:53:11.354Z,100191
2017-08-12T10:55:40.965Z,100186
2017-08-12T10:58:10.617Z,100189
2017-08-12T11:00:40.224Z,100180
2017-08-12T11:03:09.885Z,100160
2017-08-12T11:08:34.823Z,100179
2017-08-12T11:11:04.427Z,100174
2017-08-12T11:13:34.113Z,100186
2017-08-12T11:16:03.707Z,100190
2017-08-12T11:21:28.750Z,100187
2017-08-12T11:23:58.390Z,100187
2017-08-12T11:26:28.044Z,100193
2017-08-12T11:28:57.634Z,100189
2017-08-12T11:31:27.298Z,100190
2017-08-12T11:33:56.909Z,100197
2017-08-12T11:36:26.525Z,100194
2017-08-12T11:38:56.185Z,100197
2017-08-12T11:41:25.998Z,100199
2017-08-12T11:43:55.658Z,100194
2017-08-12T11:49:20.595Z,100188
2017-08-12T11:51:50.208Z,100189
2017-08-12T11:54:19.887Z,100197
2017-08-12T11:56:49.483Z,100183
2017-08-12T11:59:19.149Z,100191
2017-08-12T12:01:48.758Z,100196
2017-08-12T12:04:18.407Z,100182
2017-08-12T12:06:48.007Z,100176
2017-08-12T12:09:17.695Z,100173
2017-08-12T12:11:47.322Z,100188
2017-08-12T12:17:12.243Z,100205
2017-08-12T12:19:41.829Z,100228
2017-08-12T12:22:11.471Z,100240
2017-08-12T12:24:41.097Z,100243
2017-08-12T12:27:10.769Z,100255
2017-08-12T12:29:40.365Z,100258
2017-08-12T12:32:10.006Z,100235
2017-08-12T12:34:39.615Z,100234
2017-08-12T12:42:59.400Z,100228
2017-08-12T12:45:29.080Z,100231
2017-08-12T12:50:53.246Z,100219
2017-08-12T12:59:12.178Z,100210
2017-08-12T13:10:26.192Z,100200
2017-08-12T13:21:34.622Z,100196
2017-08-12T13:29:53.866Z,100201
2017-08-12T13:32:36.634Z,100192
2017-08-12T13:46:44.984Z,100217
2017-08-12T13:49:14.580Z,100216
2017-08-12T13:51:44.199Z,100219
2017-08-12T13:54:16.801Z,100224
2017-08-12T13:56:46.452Z,100229
2017-08-12T14:02:10.714Z,100232
2017-08-12T14:25:03.840Z,100240
2017-08-12T14:48:09.003Z,100260
2017-08-12T14:50:38.594Z,100262
2017-08-12T14:53:08.249Z,100262
2017-08-12T14:55:54.830Z,100276
2017-08-12T15:07:09.169Z,100280
2017-08-12T15:12:34.384Z,100284
2017-08-12T15:17:59.237Z,100289
2017-08-12T15:20:28.822Z,100295
2017-08-12T15:25:53.112Z,100297
2017-08-12T15:28:22.708Z,100298
2017-08-12T15:33:47.774Z,100295
2017-08-12T15:36:17.382Z,100292
2017-08-12T15:38:47.049Z,100288
2017-08-12T15:41:33.899Z,100272
2017-08-12T15:46:58.803Z,100275
2017-08-12T15:49:29.170Z,100278
2017-08-12T15:51:59.206Z,100288
2017-08-12T15:54:28.813Z,100287
2017-08-12T15:56:58.616Z,100290
2017-08-12T15:59:34.727Z,100296
2017-08-12T16:02:04.351Z,100299
2017-08-12T16:04:33.959Z,100300
2017-08-12T16:07:03.654Z,100303
2017-08-12T16:09:34.416Z,100301
2017-08-12T16:14:58.598Z,100309
2017-08-12T16:17:28.989Z,100299
2017-08-12T16:19:58.643Z,100292
2017-08-12T16:22:28.270Z,100300
2017-08-12T16:24:57.923Z,100295
2017-08-12T16:33:17.751Z,100290
2017-08-12T16:35:47.338Z,100288
2017-08-12T16:38:16.987Z,100283
2017-08-12T16:43:41.176Z,100285
2017-08-12T16:46:10.775Z,100288
2017-08-12T16:48:40.441Z,100297
2017-08-12T16:51:10.075Z,100288
2017-08-12T16:53:39.730Z,100288
2017-08-12T16:56:09.318Z,100290
2017-08-12T16:58:38.984Z,100292
2017-08-12T17:01:08.564Z,100285
2017-08-12T17:03:38.257Z,100297
2017-08-12T17:06:07.856Z,100294
2017-08-12T17:11:33.063Z,100299
2017-08-12T17:14:03.087Z,100301
2017-08-12T17:16:34.454Z,100302
2017-08-12T17:19:04.052Z,100310
2017-08-12T17:21:33.693Z,100308
2017-08-12T17:24:03.274Z,100306
2017-08-12T17:26:33.010Z,100301
2017-08-12T17:29:02.643Z,100293
2017-08-12T17:31:32.301Z,100302
2017-08-12T17:34:21.259Z,100297
2017-08-12T17:42:53.262Z,100293
2017-08-12T17:48:36.314Z,100291
2017-08-12T17:56:56.071Z,100295
2017-08-12T18:08:17.153Z,100292
2017-08-12T18:22:25.133Z,100292
2017-08-12T18:24:54.731Z,100302
2017-08-12T18:27:24.337Z,100303
2017-08-12T18:29:54.107Z,100304
2017-08-12T18:35:18.435Z,100316
2017-08-12T18:37:48.026Z,100320
2017-08-12T18:40:17.678Z,100330
2017-08-12T18:42:47.287Z,100334
2017-08-12T18:45:16.886Z,100332
2017-08-12T18:50:41.888Z,100339
2017-08-12T18:53:11.490Z,100344
2017-08-12T18:55:41.086Z,100339
2017-08-12T18:58:10.752Z,100342
2017-08-12T19:00:52.718Z,100347
2017-08-12T19:03:22.341Z,100346
2017-08-12T19:05:51.953Z,100354
2017-08-12T19:14:35.566Z,100356
2017-08-12T19:20:00.523Z,100356
2017-08-12T19:25:25.798Z,100370
2017-08-12T19:33:55.292Z,100380
2017-08-12T19:39:36.142Z,100381
2017-08-12T19:53:50.174Z,100378
2017-08-12T20:05:06.811Z,100390
2017-08-12T20:13:35.426Z,100391
2017-08-12T20:16:23.887Z,100387
2017-08-12T20:27:43.748Z,100385
2017-08-12T20:41:51.857Z,100366
2017-08-12T20:53:06.081Z,100346
2017-08-12T21:01:35.496Z,100344
2017-08-12T21:18:36.690Z,100316
2017-08-12T21:29:53.846Z,100310
2017-08-12T21:35:36.951Z,100335
2017-08-12T22:01:36.923Z,100351
2017-08-12T22:32:51.820Z,100364
2017-08-12T22:38:35.931Z,100348
2017-08-12T22:49:35.786Z,100366
2017-08-12T23:03:41.009Z,100351
2017-08-12T23:09:05.239Z,100345
2017-08-12T23:14:30.393Z,100349
2017-08-12T23:17:00.017Z,100335
2017-08-12T23:31:08.967Z,100349
2017-08-12T23:33:38.559Z,100357
2017-08-12T23:36:08.238Z,100367
2017-08-12T23:38:37.845Z,100361
2017-08-12T23:49:51.265Z,100352
2017-08-12T23:52:20.870Z,100360
2017-08-12T23:54:51.358Z,100356
2017-08-12T23:57:20.992Z,100372
2017-08-12T23:59:50.644Z,100377
